Terminal Aerodrome Forecast
Issued by NWS Charleston, WV

Current Version | Previous Version | Text Only | Print | Product List | Glossary Off
Versions: 1 2 3 4 5 6 7 8 9 10 11 12 13 14 15 16 17 18 19 20 21 22 23 24 25

000
FTUS41 KRLX 231240 AAA
TAFCRW
TAF AMD
KCRW 231240Z 2313/2412 00000KT 6SM BR SCT002
     FM231400 17003KT P6SM FEW060
     FM232300 00000KT P6SM SKC
     FM240900 00000KT 3SM BR SCT200=

USA.gov is the U.S. government's official web portal to all federal, state and local government web resources and services.